sensor_id;sensor_type;location;lat;lon;timestamp;temperature;humidity
51922;DHT22;37948;53.260;6.394;2022-08-25T00:01:10;21.30;99.90
51922;DHT22;37948;53.260;6.394;2022-08-25T00:03:35;21.30;99.90
51922;DHT22;37948;53.260;6.394;2022-08-25T00:06:02;21.30;99.90
51922;DHT22;37948;53.260;6.394;2022-08-25T00:08:27;21.20;99.90
51922;DHT22;37948;53.260;6.394;2022-08-25T00:10:53;21.20;99.90
51922;DHT22;37948;53.260;6.394;2022-08-25T00:13:18;21.20;99.90
51922;DHT22;37948;53.260;6.394;2022-08-25T00:15:44;21.20;99.90
51922;DHT22;37948;53.260;6.394;2022-08-25T00:18:11;21.10;99.90
51922;DHT22;37948;53.260;6.394;2022-08-25T00:20:36;21.10;99.90
51922;DHT22;37948;53.260;6.394;2022-08-25T00:23:02;21.10;99.90
51922;DHT22;37948;53.260;6.394;2022-08-25T00:25:27;21.10;99.90
51922;DHT22;37948;53.260;6.394;2022-08-25T00:27:53;21.10;99.90
51922;DHT22;37948;53.260;6.394;2022-08-25T00:30:18;21.10;99.90
51922;DHT22;37948;53.260;6.394;2022-08-25T00:32:44;21.00;99.90
51922;DHT22;37948;53.260;6.394;2022-08-25T00:35:10;21.00;99.90
51922;DHT22;37948;53.260;6.394;2022-08-25T00:37:36;21.00;99.90
51922;DHT22;37948;53.260;6.394;2022-08-25T00:40:05;21.00;99.90
51922;DHT22;37948;53.260;6.394;2022-08-25T00:42:31;21.10;99.90
51922;DHT22;37948;53.260;6.394;2022-08-25T00:44:57;21.10;99.90
51922;DHT22;37948;53.260;6.394;2022-08-25T00:47:23;21.10;99.90
51922;DHT22;37948;53.260;6.394;2022-08-25T00:49:50;21.10;99.90
51922;DHT22;37948;53.260;6.394;2022-08-25T00:52:19;21.10;99.90
51922;DHT22;37948;53.260;6.394;2022-08-25T00:54:50;21.10;99.90
51922;DHT22;37948;53.260;6.394;2022-08-25T00:57:17;21.10;99.90
51922;DHT22;37948;53.260;6.394;2022-08-25T00:59:44;21.10;99.90
51922;DHT22;37948;53.260;6.394;2022-08-25T01:02:10;21.10;99.90
51922;DHT22;37948;53.260;6.394;2022-08-25T01:04:36;21.10;99.90
51922;DHT22;37948;53.260;6.394;2022-08-25T01:07:02;21.10;99.90
51922;DHT22;37948;53.260;6.394;2022-08-25T01:09:28;21.10;99.90
51922;DHT22;37948;53.260;6.394;2022-08-25T01:11:55;21.20;99.90
51922;DHT22;37948;53.260;6.394;2022-08-25T01:14:21;21.20;99.90
51922;DHT22;37948;53.260;6.394;2022-08-25T01:16:48;21.20;99.90
51922;DHT22;37948;53.260;6.394;2022-08-25T01:19:14;21.20;99.90
51922;DHT22;37948;53.260;6.394;2022-08-25T01:21:41;21.20;99.90
51922;DHT22;37948;53.260;6.394;2022-08-25T01:24:08;21.20;99.90
51922;DHT22;37948;53.260;6.394;2022-08-25T01:26:34;21.20;99.90
51922;DHT22;37948;53.260;6.394;2022-08-25T01:29:00;21.20;99.90
51922;DHT22;37948;53.260;6.394;2022-08-25T01:31:45;21.20;99.90
51922;DHT22;37948;53.260;6.394;2022-08-25T01:34:13;21.20;99.90
51922;DHT22;37948;53.260;6.394;2022-08-25T01:36:40;21.20;99.90
51922;DHT22;37948;53.260;6.394;2022-08-25T01:39:06;21.20;99.90
51922;DHT22;37948;53.260;6.394;2022-08-25T01:44:09;21.20;99.90
51922;DHT22;37948;53.260;6.394;2022-08-25T01:46:34;21.20;99.90
51922;DHT22;37948;53.260;6.394;2022-08-25T01:49:00;21.20;99.90
51922;DHT22;37948;53.260;6.394;2022-08-25T01:51:27;21.20;99.90
51922;DHT22;37948;53.260;6.394;2022-08-25T01:53:53;21.20;99.90
51922;DHT22;37948;53.260;6.394;2022-08-25T01:56:18;21.20;99.90
51922;DHT22;37948;53.260;6.394;2022-08-25T01:58:44;21.20;99.90
51922;DHT22;37948;53.260;6.394;2022-08-25T02:01:17;21.20;99.90
51922;DHT22;37948;53.260;6.394;2022-08-25T02:03:45;21.10;99.90
51922;DHT22;37948;53.260;6.394;2022-08-25T02:06:11;21.20;99.90
51922;DHT22;37948;53.260;6.394;2022-08-25T02:08:37;21.10;99.90
51922;DHT22;37948;53.260;6.394;2022-08-25T02:11:02;21.10;99.90
51922;DHT22;37948;53.260;6.394;2022-08-25T02:13:28;21.10;99.90
51922;DHT22;37948;53.260;6.394;2022-08-25T02:15:54;21.10;99.90
51922;DHT22;37948;53.260;6.394;2022-08-25T02:18:20;21.10;99.90
51922;DHT22;37948;53.260;6.394;2022-08-25T02:20:46;21.10;99.90
51922;DHT22;37948;53.260;6.394;2022-08-25T02:23:12;21.10;99.90
51922;DHT22;37948;53.260;6.394;2022-08-25T02:25:38;21.10;99.90
51922;DHT22;37948;53.260;6.394;2022-08-25T02:28:04;21.10;99.90
51922;DHT22;37948;53.260;6.394;2022-08-25T02:30:30;21.00;99.90
51922;DHT22;37948;53.260;6.394;2022-08-25T02:32:56;21.00;99.90
51922;DHT22;37948;53.260;6.394;2022-08-25T02:35:21;21.00;99.90
51922;DHT22;37948;53.260;6.394;2022-08-25T02:37:49;21.00;99.90
51922;DHT22;37948;53.260;6.394;2022-08-25T02:40:14;20.90;99.90
51922;DHT22;37948;53.260;6.394;2022-08-25T02:42:40;20.80;99.90
51922;DHT22;37948;53.260;6.394;2022-08-25T02:45:05;20.80;99.90
51922;DHT22;37948;53.260;6.394;2022-08-25T02:47:32;20.80;99.90
51922;DHT22;37948;53.260;6.394;2022-08-25T02:49:57;20.70;99.90
51922;DHT22;37948;53.260;6.394;2022-08-25T02:52:23;20.70;99.90
51922;DHT22;37948;53.260;6.394;2022-08-25T02:54:49;20.60;99.90
51922;DHT22;37948;53.260;6.394;2022-08-25T02:57:15;20.70;99.90
51922;DHT22;37948;53.260;6.394;2022-08-25T02:59:40;20.60;99.90
51922;DHT22;37948;53.260;6.394;2022-08-25T03:02:06;20.60;99.90
51922;DHT22;37948;53.260;6.394;2022-08-25T03:04:32;20.60;99.90
51922;DHT22;37948;53.260;6.394;2022-08-25T03:06:57;20.60;99.90
51922;DHT22;37948;53.260;6.394;2022-08-25T03:09:23;20.50;99.90
51922;DHT22;37948;53.260;6.394;2022-08-25T03:11:49;20.60;99.90
51922;DHT22;37948;53.260;6.394;2022-08-25T03:14:14;20.50;99.90
51922;DHT22;37948;53.260;6.394;2022-08-25T03:16:40;20.50;99.90
51922;DHT22;37948;53.260;6.394;2022-08-25T03:19:08;20.50;99.90
51922;DHT22;37948;53.260;6.394;2022-08-25T03:21:34;20.50;99.90
51922;DHT22;37948;53.260;6.394;2022-08-25T03:24:01;20.50;99.90
51922;DHT22;37948;53.260;6.394;2022-08-25T03:26:26;20.50;99.90
51922;DHT22;37948;53.260;6.394;2022-08-25T03:29:10;20.50;99.90
51922;DHT22;37948;53.260;6.394;2022-08-25T03:31:35;20.50;99.90
51922;DHT22;37948;53.260;6.394;2022-08-25T03:34:02;20.50;99.90
51922;DHT22;37948;53.260;6.394;2022-08-25T03:36:28;20.50;99.90
51922;DHT22;37948;53.260;6.394;2022-08-25T03:38:53;20.50;99.90
51922;DHT22;37948;53.260;6.394;2022-08-25T03:41:24;20.50;99.90
51922;DHT22;37948;53.260;6.394;2022-08-25T03:43:51;20.50;99.90
51922;DHT22;37948;53.260;6.394;2022-08-25T03:46:18;20.40;99.90
51922;DHT22;37948;53.260;6.394;2022-08-25T03:48:44;20.40;99.90
51922;DHT22;37948;53.260;6.394;2022-08-25T03:51:09;20.40;99.90
51922;DHT22;37948;53.260;6.394;2022-08-25T03:53:35;20.40;99.90
51922;DHT22;37948;53.260;6.394;2022-08-25T03:56:00;20.40;99.90
51922;DHT22;37948;53.260;6.394;2022-08-25T03:58:26;20.40;99.90
51922;DHT22;37948;53.260;6.394;2022-08-25T04:00:51;20.40;99.90
51922;DHT22;37948;53.260;6.394;2022-08-25T04:03:18;20.40;99.90
51922;DHT22;37948;53.260;6.394;2022-08-25T04:05:43;20.40;99.90
51922;DHT22;37948;53.260;6.394;2022-08-25T04:08:10;20.40;99.90
51922;DHT22;37948;53.260;6.394;2022-08-25T04:10:35;20.40;99.90
51922;DHT22;37948;53.260;6.394;2022-08-25T04:13:01;20.40;99.90
51922;DHT22;37948;53.260;6.394;2022-08-25T04:15:27;20.40;99.90
51922;DHT22;37948;53.260;6.394;2022-08-25T04:17:53;20.40;99.90
51922;DHT22;37948;53.260;6.394;2022-08-25T04:20:18;20.30;99.90
51922;DHT22;37948;53.260;6.394;2022-08-25T04:22:44;20.30;99.90
51922;DHT22;37948;53.260;6.394;2022-08-25T04:25:09;20.30;99.90
51922;DHT22;37948;53.260;6.394;2022-08-25T04:27:35;20.30;99.90
51922;DHT22;37948;53.260;6.394;2022-08-25T04:30:00;20.30;99.90
51922;DHT22;37948;53.260;6.394;2022-08-25T04:32:26;20.20;99.90
51922;DHT22;37948;53.260;6.394;2022-08-25T04:34:52;20.20;99.90
51922;DHT22;37948;53.260;6.394;2022-08-25T04:37:17;20.20;99.90
51922;DHT22;37948;53.260;6.394;2022-08-25T04:39:43;20.20;99.90
51922;DHT22;37948;53.260;6.394;2022-08-25T04:42:08;20.20;99.90
51922;DHT22;37948;53.260;6.394;2022-08-25T04:44:34;20.20;99.90
51922;DHT22;37948;53.260;6.394;2022-08-25T04:46:59;20.10;99.90
51922;DHT22;37948;53.260;6.394;2022-08-25T04:49:25;20.10;99.90
51922;DHT22;37948;53.260;6.394;2022-08-25T04:51:51;20.10;99.90
51922;DHT22;37948;53.260;6.394;2022-08-25T04:54:16;20.10;99.90
51922;DHT22;37948;53.260;6.394;2022-08-25T04:56:45;20.10;99.90
51922;DHT22;37948;53.260;6.394;2022-08-25T04:59:12;20.10;99.90
51922;DHT22;37948;53.260;6.394;2022-08-25T05:01:38;20.10;99.90
51922;DHT22;37948;53.260;6.394;2022-08-25T05:04:05;20.20;99.90
51922;DHT22;37948;53.260;6.394;2022-08-25T05:06:31;20.10;99.90
51922;DHT22;37948;53.260;6.394;2022-08-25T05:08:57;20.10;99.90
51922;DHT22;37948;53.260;6.394;2022-08-25T05:11:23;20.10;99.90
51922;DHT22;37948;53.260;6.394;2022-08-25T05:13:49;20.10;99.90
51922;DHT22;37948;53.260;6.394;2022-08-25T05:16:16;20.10;99.90
51922;DHT22;37948;53.260;6.394;2022-08-25T05:18:41;20.10;99.90
51922;DHT22;37948;53.260;6.394;2022-08-25T05:21:08;20.20;99.90
51922;DHT22;37948;53.260;6.394;2022-08-25T05:23:35;20.20;99.90
51922;DHT22;37948;53.260;6.394;2022-08-25T05:26:02;20.10;99.90
51922;DHT22;37948;53.260;6.394;2022-08-25T05:28:28;20.20;99.90
51922;DHT22;37948;53.260;6.394;2022-08-25T05:30:56;20.20;99.90
51922;DHT22;37948;53.260;6.394;2022-08-25T05:33:22;20.20;99.90
51922;DHT22;37948;53.260;6.394;2022-08-25T05:35:48;20.20;99.90
51922;DHT22;37948;53.260;6.394;2022-08-25T05:38:13;20.20;99.90
51922;DHT22;37948;53.260;6.394;2022-08-25T05:40:39;20.20;99.90
51922;DHT22;37948;53.260;6.394;2022-08-25T05:43:04;20.20;99.90
51922;DHT22;37948;53.260;6.394;2022-08-25T05:45:30;20.20;99.90
51922;DHT22;37948;53.260;6.394;2022-08-25T05:47:56;20.30;99.90
51922;DHT22;37948;53.260;6.394;2022-08-25T05:50:22;20.30;99.90
51922;DHT22;37948;53.260;6.394;2022-08-25T05:52:47;20.30;99.90
51922;DHT22;37948;53.260;6.394;2022-08-25T05:55:13;20.30;99.90
51922;DHT22;37948;53.260;6.394;2022-08-25T05:57:40;20.40;99.90
51922;DHT22;37948;53.260;6.394;2022-08-25T06:00:07;20.40;99.90
51922;DHT22;37948;53.260;6.394;2022-08-25T06:02:33;20.50;99.90
51922;DHT22;37948;53.260;6.394;2022-08-25T06:05:13;20.50;99.90
51922;DHT22;37948;53.260;6.394;2022-08-25T06:07:39;20.50;99.90
51922;DHT22;37948;53.260;6.394;2022-08-25T06:10:06;20.50;99.90
51922;DHT22;37948;53.260;6.394;2022-08-25T06:12:32;20.60;99.90
51922;DHT22;37948;53.260;6.394;2022-08-25T06:14:58;20.60;99.90
51922;DHT22;37948;53.260;6.394;2022-08-25T06:17:24;20.70;99.90
51922;DHT22;37948;53.260;6.394;2022-08-25T06:19:49;20.70;99.90
51922;DHT22;37948;53.260;6.394;2022-08-25T06:22:15;20.70;99.90
51922;DHT22;37948;53.260;6.394;2022-08-25T06:24:40;20.80;99.90
51922;DHT22;37948;53.260;6.394;2022-08-25T06:27:06;20.80;99.90
51922;DHT22;37948;53.260;6.394;2022-08-25T06:29:31;20.90;99.90
51922;DHT22;37948;53.260;6.394;2022-08-25T06:31:57;20.90;99.90
51922;DHT22;37948;53.260;6.394;2022-08-25T06:34:22;20.90;99.90
51922;DHT22;37948;53.260;6.394;2022-08-25T06:36:48;21.00;99.90
51922;DHT22;37948;53.260;6.394;2022-08-25T06:39:14;21.00;99.90
51922;DHT22;37948;53.260;6.394;2022-08-25T06:41:40;21.10;99.90
51922;DHT22;37948;53.260;6.394;2022-08-25T06:44:05;21.20;99.90
51922;DHT22;37948;53.260;6.394;2022-08-25T06:46:31;21.20;99.90
51922;DHT22;37948;53.260;6.394;2022-08-25T06:48:56;21.20;99.90
51922;DHT22;37948;53.260;6.394;2022-08-25T06:51:23;21.30;99.90
51922;DHT22;37948;53.260;6.394;2022-08-25T06:53:49;21.30;99.90
51922;DHT22;37948;53.260;6.394;2022-08-25T06:56:15;21.40;99.90
51922;DHT22;37948;53.260;6.394;2022-08-25T06:58:41;21.50;99.90
51922;DHT22;37948;53.260;6.394;2022-08-25T07:03:32;21.60;99.90
51922;DHT22;37948;53.260;6.394;2022-08-25T07:05:57;21.70;99.90
51922;DHT22;37948;53.260;6.394;2022-08-25T07:08:23;21.70;99.90
51922;DHT22;37948;53.260;6.394;2022-08-25T07:10:48;21.80;99.90
51922;DHT22;37948;53.260;6.394;2022-08-25T07:13:14;21.80;99.90
51922;DHT22;37948;53.260;6.394;2022-08-25T07:15:40;21.90;99.90
51922;DHT22;37948;53.260;6.394;2022-08-25T07:18:06;21.90;99.90
51922;DHT22;37948;53.260;6.394;2022-08-25T07:20:34;22.00;99.90
51922;DHT22;37948;53.260;6.394;2022-08-25T07:23:00;22.10;99.90
51922;DHT22;37948;53.260;6.394;2022-08-25T07:25:26;22.10;99.90
51922;DHT22;37948;53.260;6.394;2022-08-25T07:27:52;22.20;99.90
51922;DHT22;37948;53.260;6.394;2022-08-25T07:30:18;22.30;99.90
51922;DHT22;37948;53.260;6.394;2022-08-25T07:32:43;22.30;99.90
51922;DHT22;37948;53.260;6.394;2022-08-25T07:35:09;22.40;99.90
51922;DHT22;37948;53.260;6.394;2022-08-25T07:37:42;22.50;99.90
51922;DHT22;37948;53.260;6.394;2022-08-25T07:40:09;22.50;99.90
51922;DHT22;37948;53.260;6.394;2022-08-25T07:42:35;22.60;99.90
51922;DHT22;37948;53.260;6.394;2022-08-25T07:45:01;22.70;99.90
51922;DHT22;37948;53.260;6.394;2022-08-25T07:47:26;22.70;99.90
51922;DHT22;37948;53.260;6.394;2022-08-25T07:49:51;22.80;99.90
51922;DHT22;37948;53.260;6.394;2022-08-25T07:52:17;22.80;99.90
51922;DHT22;37948;53.260;6.394;2022-08-25T07:54:42;22.90;99.90
51922;DHT22;37948;53.260;6.394;2022-08-25T07:57:08;22.90;99.90
51922;DHT22;37948;53.260;6.394;2022-08-25T07:59:34;23.00;99.90
51922;DHT22;37948;53.260;6.394;2022-08-25T08:02:03;23.00;99.90
51922;DHT22;37948;53.260;6.394;2022-08-25T08:04:28;23.10;99.90
51922;DHT22;37948;53.260;6.394;2022-08-25T08:06:54;23.10;99.90
51922;DHT22;37948;53.260;6.394;2022-08-25T08:09:19;23.30;99.90
51922;DHT22;37948;53.260;6.394;2022-08-25T08:11:44;23.30;99.90
51922;DHT22;37948;53.260;6.394;2022-08-25T08:14:10;23.40;99.90
51922;DHT22;37948;53.260;6.394;2022-08-25T08:16:35;23.50;99.90
51922;DHT22;37948;53.260;6.394;2022-08-25T08:19:02;23.60;99.90
51922;DHT22;37948;53.260;6.394;2022-08-25T08:21:29;23.60;99.90
51922;DHT22;37948;53.260;6.394;2022-08-25T08:23:55;23.80;99.90
51922;DHT22;37948;53.260;6.394;2022-08-25T08:26:21;23.80;99.90
51922;DHT22;37948;53.260;6.394;2022-08-25T08:28:47;23.90;99.90
51922;DHT22;37948;53.260;6.394;2022-08-25T08:31:13;24.00;99.90
51922;DHT22;37948;53.260;6.394;2022-08-25T08:33:43;24.00;99.90
51922;DHT22;37948;53.260;6.394;2022-08-25T08:36:10;24.10;99.90
51922;DHT22;37948;53.260;6.394;2022-08-25T08:38:37;24.20;99.90
51922;DHT22;37948;53.260;6.394;2022-08-25T08:44:21;24.40;99.90
51922;DHT22;37948;53.260;6.394;2022-08-25T08:46:55;24.50;99.90
51922;DHT22;37948;53.260;6.394;2022-08-25T08:49:48;24.50;99.90
51922;DHT22;37948;53.260;6.394;2022-08-25T08:52:09;24.70;99.90
51922;DHT22;37948;53.260;6.394;2022-08-25T08:54:38;24.80;99.90
51922;DHT22;37948;53.260;6.394;2022-08-25T08:57:12;24.90;99.90
51922;DHT22;37948;53.260;6.394;2022-08-25T08:59:40;25.00;99.90
51922;DHT22;37948;53.260;6.394;2022-08-25T09:02:11;25.10;99.90
51922;DHT22;37948;53.260;6.394;2022-08-25T09:04:39;25.10;99.90
51922;DHT22;37948;53.260;6.394;2022-08-25T09:07:53;25.20;99.90
51922;DHT22;37948;53.260;6.394;2022-08-25T09:09:56;25.30;99.90
51922;DHT22;37948;53.260;6.394;2022-08-25T09:12:29;25.50;99.90
51922;DHT22;37948;53.260;6.394;2022-08-25T09:20:13;25.70;99.90
51922;DHT22;37948;53.260;6.394;2022-08-25T09:28:01;26.10;99.90
51922;DHT22;37948;53.260;6.394;2022-08-25T09:30:32;26.10;99.90
51922;DHT22;37948;53.260;6.394;2022-08-25T09:33:02;26.20;99.90
51922;DHT22;37948;53.260;6.394;2022-08-25T09:35:32;26.30;99.90
51922;DHT22;37948;53.260;6.394;2022-08-25T09:37:58;26.40;99.90
51922;DHT22;37948;53.260;6.394;2022-08-25T09:40:24;26.60;99.90
51922;DHT22;37948;53.260;6.394;2022-08-25T09:42:51;26.80;99.90
51922;DHT22;37948;53.260;6.394;2022-08-25T09:45:35;27.00;99.90
51922;DHT22;37948;53.260;6.394;2022-08-25T09:48:18;27.00;99.90
51922;DHT22;37948;53.260;6.394;2022-08-25T09:50:44;27.10;99.90
51922;DHT22;37948;53.260;6.394;2022-08-25T09:53:13;27.10;99.90
51922;DHT22;37948;53.260;6.394;2022-08-25T09:55:40;27.10;99.90
51922;DHT22;37948;53.260;6.394;2022-08-25T09:58:20;27.30;99.90
51922;DHT22;37948;53.260;6.394;2022-08-25T10:01:03;27.40;99.90
51922;DHT22;37948;53.260;6.394;2022-08-25T10:03:30;27.40;99.90
51922;DHT22;37948;53.260;6.394;2022-08-25T10:05:58;27.50;99.90
51922;DHT22;37948;53.260;6.394;2022-08-25T10:10:56;27.60;99.90
51922;DHT22;37948;53.260;6.394;2022-08-25T10:13:31;27.70;99.90
51922;DHT22;37948;53.260;6.394;2022-08-25T10:16:04;27.80;99.90
51922;DHT22;37948;53.260;6.394;2022-08-25T10:18:30;27.80;99.20
51922;DHT22;37948;53.260;6.394;2022-08-25T10:21:05;27.80;99.30
51922;DHT22;37948;53.260;6.394;2022-08-25T10:23:31;27.70;99.70
51922;DHT22;37948;53.260;6.394;2022-08-25T10:25:58;27.80;98.90
51922;DHT22;37948;53.260;6.394;2022-08-25T10:29:29;27.90;98.60
51922;DHT22;37948;53.260;6.394;2022-08-25T10:31:23;28.00;97.60
51922;DHT22;37948;53.260;6.394;2022-08-25T10:39:05;28.40;97.70
51922;DHT22;37948;53.260;6.394;2022-08-25T10:47:21;28.50;97.40
51922;DHT22;37948;53.260;6.394;2022-08-25T10:49:44;28.60;97.90
51922;DHT22;37948;53.260;6.394;2022-08-25T10:52:21;28.60;97.50
51922;DHT22;37948;53.260;6.394;2022-08-25T10:55:00;28.80;96.90
51922;DHT22;37948;53.260;6.394;2022-08-25T11:00:17;28.90;97.60
51922;DHT22;37948;53.260;6.394;2022-08-25T11:02:59;28.90;97.60
51922;DHT22;37948;53.260;6.394;2022-08-25T11:08:05;29.10;97.10
51922;DHT22;37948;53.260;6.394;2022-08-25T11:10:38;29.20;97.00
51922;DHT22;37948;53.260;6.394;2022-08-25T11:13:06;29.30;96.70
51922;DHT22;37948;53.260;6.394;2022-08-25T11:18:04;29.40;95.10
51922;DHT22;37948;53.260;6.394;2022-08-25T11:20:32;29.50;96.30
51922;DHT22;37948;53.260;6.394;2022-08-25T11:23:09;29.50;96.10
51922;DHT22;37948;53.260;6.394;2022-08-25T11:25:37;29.60;96.10
51922;DHT22;37948;53.260;6.394;2022-08-25T11:28:16;29.60;96.60
51922;DHT22;37948;53.260;6.394;2022-08-25T11:30:43;29.60;95.40
51922;DHT22;37948;53.260;6.394;2022-08-25T11:33:15;29.60;95.00
51922;DHT22;37948;53.260;6.394;2022-08-25T11:36:01;29.50;94.90
51922;DHT22;37948;53.260;6.394;2022-08-25T11:38:47;29.60;94.20
51922;DHT22;37948;53.260;6.394;2022-08-25T11:41:35;29.50;94.70
51922;DHT22;37948;53.260;6.394;2022-08-25T11:51:46;29.70;94.80
51922;DHT22;37948;53.260;6.394;2022-08-25T11:54:15;29.70;94.70
51922;DHT22;37948;53.260;6.394;2022-08-25T11:56:40;29.80;94.90
51922;DHT22;37948;53.260;6.394;2022-08-25T11:59:06;29.90;93.90
51922;DHT22;37948;53.260;6.394;2022-08-25T12:04:14;30.10;94.00
51922;DHT22;37948;53.260;6.394;2022-08-25T12:09:24;30.00;94.30
51922;DHT22;37948;53.260;6.394;2022-08-25T12:11:51;30.10;94.10
51922;DHT22;37948;53.260;6.394;2022-08-25T12:27:26;30.20;91.30
51922;DHT22;37948;53.260;6.394;2022-08-25T12:30:07;30.20;92.40
51922;DHT22;37948;53.260;6.394;2022-08-25T12:33:24;30.30;92.10
51922;DHT22;37948;53.260;6.394;2022-08-25T12:35:30;30.30;92.60
51922;DHT22;37948;53.260;6.394;2022-08-25T12:37:57;30.30;92.80
51922;DHT22;37948;53.260;6.394;2022-08-25T12:40:25;30.40;92.70
51922;DHT22;37948;53.260;6.394;2022-08-25T12:42:59;30.50;91.90
51922;DHT22;37948;53.260;6.394;2022-08-25T12:45:32;30.50;90.70
51922;DHT22;37948;53.260;6.394;2022-08-25T12:50:43;30.50;91.40
51922;DHT22;37948;53.260;6.394;2022-08-25T12:53:32;30.50;91.30
51922;DHT22;37948;53.260;6.394;2022-08-25T12:56:04;30.60;91.20
51922;DHT22;37948;53.260;6.394;2022-08-25T12:59:17;30.60;91.10
51922;DHT22;37948;53.260;6.394;2022-08-25T13:06:21;30.70;90.20
51922;DHT22;37948;53.260;6.394;2022-08-25T13:14:16;30.80;90.60
51922;DHT22;37948;53.260;6.394;2022-08-25T13:16:53;30.80;90.40
51922;DHT22;37948;53.260;6.394;2022-08-25T13:19:19;30.90;90.10
51922;DHT22;37948;53.260;6.394;2022-08-25T13:21:44;30.90;90.30
51922;DHT22;37948;53.260;6.394;2022-08-25T13:26:41;31.00;89.00
51922;DHT22;37948;53.260;6.394;2022-08-25T13:31:33;31.00;88.50
51922;DHT22;37948;53.260;6.394;2022-08-25T13:34:01;31.00;90.00
51922;DHT22;37948;53.260;6.394;2022-08-25T13:36:28;31.00;88.70
51922;DHT22;37948;53.260;6.394;2022-08-25T13:39:22;31.00;89.30
51922;DHT22;37948;53.260;6.394;2022-08-25T13:41:49;31.00;88.50
51922;DHT22;37948;53.260;6.394;2022-08-25T13:44:15;31.00;87.20
51922;DHT22;37948;53.260;6.394;2022-08-25T13:46:41;31.10;85.50
51922;DHT22;37948;53.260;6.394;2022-08-25T13:49:07;31.10;84.90
51922;DHT22;37948;53.260;6.394;2022-08-25T13:51:33;31.00;87.40
51922;DHT22;37948;53.260;6.394;2022-08-25T13:54:00;31.10;87.30
51922;DHT22;37948;53.260;6.394;2022-08-25T13:56:34;31.10;86.30
51922;DHT22;37948;53.260;6.394;2022-08-25T13:59:01;31.10;86.00
51922;DHT22;37948;53.260;6.394;2022-08-25T14:01:28;31.20;85.40
51922;DHT22;37948;53.260;6.394;2022-08-25T14:03:56;31.10;84.80
51922;DHT22;37948;53.260;6.394;2022-08-25T14:06:23;31.10;85.70
51922;DHT22;37948;53.260;6.394;2022-08-25T14:11:28;31.10;84.80
51922;DHT22;37948;53.260;6.394;2022-08-25T14:14:04;31.10;85.10
51922;DHT22;37948;53.260;6.394;2022-08-25T14:16:44;31.10;85.70
51922;DHT22;37948;53.260;6.394;2022-08-25T14:19:11;31.10;85.60
51922;DHT22;37948;53.260;6.394;2022-08-25T14:21:38;31.10;84.10
51922;DHT22;37948;53.260;6.394;2022-08-25T14:24:04;31.20;84.40
51922;DHT22;37948;53.260;6.394;2022-08-25T14:26:30;31.20;85.70
51922;DHT22;37948;53.260;6.394;2022-08-25T14:28:56;31.20;83.20
51922;DHT22;37948;53.260;6.394;2022-08-25T14:31:25;31.10;84.20
51922;DHT22;37948;53.260;6.394;2022-08-25T14:36:24;31.10;85.30
51922;DHT22;37948;53.260;6.394;2022-08-25T14:38:49;31.10;83.90
51922;DHT22;37948;53.260;6.394;2022-08-25T14:41:15;31.10;81.80
51922;DHT22;37948;53.260;6.394;2022-08-25T14:43:40;31.00;83.70
51922;DHT22;37948;53.260;6.394;2022-08-25T14:46:12;31.00;82.70
51922;DHT22;37948;53.260;6.394;2022-08-25T14:48:42;31.00;83.70
51922;DHT22;37948;53.260;6.394;2022-08-25T14:51:09;31.00;83.40
51922;DHT22;37948;53.260;6.394;2022-08-25T14:53:35;31.00;82.10
51922;DHT22;37948;53.260;6.394;2022-08-25T14:56:01;31.00;82.40
51922;DHT22;37948;53.260;6.394;2022-08-25T14:58:26;31.00;83.40
51922;DHT22;37948;53.260;6.394;2022-08-25T15:00:52;31.00;82.80
51922;DHT22;37948;53.260;6.394;2022-08-25T15:06:14;31.00;82.90
51922;DHT22;37948;53.260;6.394;2022-08-25T15:08:39;31.00;82.60
51922;DHT22;37948;53.260;6.394;2022-08-25T15:11:24;30.90;82.70
51922;DHT22;37948;53.260;6.394;2022-08-25T15:13:49;30.90;83.00
51922;DHT22;37948;53.260;6.394;2022-08-25T15:16:26;30.90;82.70
51922;DHT22;37948;53.260;6.394;2022-08-25T15:18:52;30.80;82.70
51922;DHT22;37948;53.260;6.394;2022-08-25T15:21:17;30.70;82.90
51922;DHT22;37948;53.260;6.394;2022-08-25T15:23:43;30.70;83.20
51922;DHT22;37948;53.260;6.394;2022-08-25T15:26:10;30.70;83.20
51922;DHT22;37948;53.260;6.394;2022-08-25T15:28:40;30.60;83.50
51922;DHT22;37948;53.260;6.394;2022-08-25T15:31:07;30.60;83.00
51922;DHT22;37948;53.260;6.394;2022-08-25T15:33:32;30.60;83.60
51922;DHT22;37948;53.260;6.394;2022-08-25T15:35:58;30.60;83.00
51922;DHT22;37948;53.260;6.394;2022-08-25T15:38:23;30.50;82.20
51922;DHT22;37948;53.260;6.394;2022-08-25T15:40:49;30.40;83.30
51922;DHT22;37948;53.260;6.394;2022-08-25T15:43:15;30.40;83.00
51922;DHT22;37948;53.260;6.394;2022-08-25T15:45:40;30.30;83.00
51922;DHT22;37948;53.260;6.394;2022-08-25T15:48:06;30.30;83.30
51922;DHT22;37948;53.260;6.394;2022-08-25T15:50:31;30.20;83.00
51922;DHT22;37948;53.260;6.394;2022-08-25T15:52:57;30.20;83.50
51922;DHT22;37948;53.260;6.394;2022-08-25T15:55:22;30.20;82.40
51922;DHT22;37948;53.260;6.394;2022-08-25T15:57:48;30.10;83.00
51922;DHT22;37948;53.260;6.394;2022-08-25T16:00:13;30.00;83.00
51922;DHT22;37948;53.260;6.394;2022-08-25T16:02:39;29.90;83.70
51922;DHT22;37948;53.260;6.394;2022-08-25T16:05:06;29.90;82.90
51922;DHT22;37948;53.260;6.394;2022-08-25T16:07:32;29.80;82.30
51922;DHT22;37948;53.260;6.394;2022-08-25T16:09:57;29.80;82.70
51922;DHT22;37948;53.260;6.394;2022-08-25T16:12:23;29.70;82.80
51922;DHT22;37948;53.260;6.394;2022-08-25T16:14:49;29.60;83.80
51922;DHT22;37948;53.260;6.394;2022-08-25T16:17:14;29.60;83.60
51922;DHT22;37948;53.260;6.394;2022-08-25T16:19:40;29.60;84.00
51922;DHT22;37948;53.260;6.394;2022-08-25T16:22:05;29.60;83.20
51922;DHT22;37948;53.260;6.394;2022-08-25T16:24:31;29.50;84.20
51922;DHT22;37948;53.260;6.394;2022-08-25T16:26:57;29.50;84.50
51922;DHT22;37948;53.260;6.394;2022-08-25T16:29:35;29.40;83.70
51922;DHT22;37948;53.260;6.394;2022-08-25T16:32:04;29.40;84.20
51922;DHT22;37948;53.260;6.394;2022-08-25T16:34:30;29.30;83.50
51922;DHT22;37948;53.260;6.394;2022-08-25T16:36:55;29.30;83.90
51922;DHT22;37948;53.260;6.394;2022-08-25T16:39:21;29.20;83.70
51922;DHT22;37948;53.260;6.394;2022-08-25T16:41:47;29.20;83.70
51922;DHT22;37948;53.260;6.394;2022-08-25T16:44:12;29.20;83.70
51922;DHT22;37948;53.260;6.394;2022-08-25T16:46:38;29.20;84.00
51922;DHT22;37948;53.260;6.394;2022-08-25T16:49:04;29.10;83.70
51922;DHT22;37948;53.260;6.394;2022-08-25T16:51:30;29.10;84.60
51922;DHT22;37948;53.260;6.394;2022-08-25T16:53:56;29.10;84.20
51922;DHT22;37948;53.260;6.394;2022-08-25T16:56:40;29.00;84.70
51922;DHT22;37948;53.260;6.394;2022-08-25T16:59:07;29.00;84.70
51922;DHT22;37948;53.260;6.394;2022-08-25T17:01:33;28.90;85.50
51922;DHT22;37948;53.260;6.394;2022-08-25T17:03:59;28.90;84.60
51922;DHT22;37948;53.260;6.394;2022-08-25T17:06:27;28.90;84.80